sensor_id;sensor_type;location;lat;lon;timestamp;pressure;altitude;pressure_sealevel;temperature;humidity
63552;BME280;49698;48.072;7.800;2023-04-09T00:02:22;100020.69;;;7.09;80.75
63552;BME280;49698;48.072;7.800;2023-04-09T00:04:50;100021.09;;;7.01;81.29
63552;BME280;49698;48.072;7.800;2023-04-09T00:07:18;100013.25;;;6.95;81.37
63552;BME280;49698;48.072;7.800;2023-04-09T00:09:46;100014.78;;;6.91;81.62
63552;BME280;49698;48.072;7.800;2023-04-09T00:12:14;100013.88;;;6.85;81.61
63552;BME280;49698;48.072;7.800;2023-04-09T00:14:42;100014.53;;;6.75;81.78
63552;BME280;49698;48.072;7.800;2023-04-09T00:17:10;100009.94;;;6.71;81.76
63552;BME280;49698;48.072;7.800;2023-04-09T00:19:52;100014.34;;;6.65;82.18
63552;BME280;49698;48.072;7.800;2023-04-09T00:22:21;100011.53;;;6.55;82.95
63552;BME280;49698;48.072;7.800;2023-04-09T00:24:49;100021.22;;;6.44;83.03
63552;BME280;49698;48.072;7.800;2023-04-09T00:27:17;100015.94;;;6.32;83.25
63552;BME280;49698;48.072;7.800;2023-04-09T00:29:45;100016.00;;;6.21;83.81
63552;BME280;49698;48.072;7.800;2023-04-09T00:32:13;100014.84;;;6.17;83.63
63552;BME280;49698;48.072;7.800;2023-04-09T00:34:41;100012.66;;;6.13;83.82
63552;BME280;49698;48.072;7.800;2023-04-09T00:37:10;100014.66;;;6.06;83.79
63552;BME280;49698;48.072;7.800;2023-04-09T00:39:38;100023.03;;;5.98;84.15
63552;BME280;49698;48.072;7.800;2023-04-09T00:42:06;100014.13;;;5.93;84.25
63552;BME280;49698;48.072;7.800;2023-04-09T00:44:34;100011.78;;;5.84;84.47
63552;BME280;49698;48.072;7.800;2023-04-09T00:47:02;100016.22;;;5.79;84.94
63552;BME280;49698;48.072;7.800;2023-04-09T00:49:30;100019.34;;;5.76;84.64
63552;BME280;49698;48.072;7.800;2023-04-09T00:51:59;100017.16;;;5.73;85.02
63552;BME280;49698;48.072;7.800;2023-04-09T00:54:29;100013.00;;;5.65;84.86
63552;BME280;49698;48.072;7.800;2023-04-09T00:56:58;100015.66;;;5.65;85.02
63552;BME280;49698;48.072;7.800;2023-04-09T00:59:26;100015.91;;;5.63;84.90
63552;BME280;49698;48.072;7.800;2023-04-09T01:01:54;100010.69;;;5.57;84.85
63552;BME280;49698;48.072;7.800;2023-04-09T01:04:23;100012.44;;;5.51;85.30
63552;BME280;49698;48.072;7.800;2023-04-09T01:06:56;100011.75;;;5.56;84.90
63552;BME280;49698;48.072;7.800;2023-04-09T01:09:29;100016.81;;;5.57;84.52
63552;BME280;49698;48.072;7.800;2023-04-09T01:12:09;100011.50;;;5.57;84.58
63552;BME280;49698;48.072;7.800;2023-04-09T01:14:44;100004.66;;;5.50;84.68
63552;BME280;49698;48.072;7.800;2023-04-09T01:17:22;100010.50;;;5.47;85.12
63552;BME280;49698;48.072;7.800;2023-04-09T01:19:57;100007.22;;;5.45;85.03
63552;BME280;49698;48.072;7.800;2023-04-09T01:22:32;100005.75;;;5.37;85.13
63552;BME280;49698;48.072;7.800;2023-04-09T01:25:14;100001.81;;;5.28;85.56
63552;BME280;49698;48.072;7.800;2023-04-09T01:27:53;100004.94;;;5.25;85.58
63552;BME280;49698;48.072;7.800;2023-04-09T01:30:25;100001.56;;;5.18;85.58
63552;BME280;49698;48.072;7.800;2023-04-09T01:32:55;99998.09;;;5.17;85.84
63552;BME280;49698;48.072;7.800;2023-04-09T01:35:24;99998.81;;;5.12;85.92
63552;BME280;49698;48.072;7.800;2023-04-09T01:37:53;100001.38;;;5.07;86.10
63552;BME280;49698;48.072;7.800;2023-04-09T01:40:23;100001.22;;;5.02;86.10
63552;BME280;49698;48.072;7.800;2023-04-09T01:42:52;100001.13;;;4.97;86.36
63552;BME280;49698;48.072;7.800;2023-04-09T01:45:21;99997.41;;;4.98;85.99
63552;BME280;49698;48.072;7.800;2023-04-09T01:47:51;100004.69;;;4.91;86.29
63552;BME280;49698;48.072;7.800;2023-04-09T01:50:21;99999.72;;;4.95;85.94
63552;BME280;49698;48.072;7.800;2023-04-09T01:52:49;100006.56;;;4.90;85.77
63552;BME280;49698;48.072;7.800;2023-04-09T01:55:18;100010.25;;;4.89;86.17
63552;BME280;49698;48.072;7.800;2023-04-09T01:57:46;100005.19;;;4.88;85.76
63552;BME280;49698;48.072;7.800;2023-04-09T02:00:14;100011.97;;;4.84;85.68
63552;BME280;49698;48.072;7.800;2023-04-09T02:02:47;100010.81;;;4.80;86.00
63552;BME280;49698;48.072;7.800;2023-04-09T02:05:19;100009.66;;;4.76;86.09
63552;BME280;49698;48.072;7.800;2023-04-09T02:07:52;100014.88;;;4.71;86.26
63552;BME280;49698;48.072;7.800;2023-04-09T02:10:22;100008.13;;;4.68;86.45
63552;BME280;49698;48.072;7.800;2023-04-09T02:12:51;100011.03;;;4.66;86.66
63552;BME280;49698;48.072;7.800;2023-04-09T02:15:20;100012.19;;;4.59;86.57
63552;BME280;49698;48.072;7.800;2023-04-09T02:17:49;100010.31;;;4.48;86.88
63552;BME280;49698;48.072;7.800;2023-04-09T02:20:18;100010.63;;;4.39;86.86
63552;BME280;49698;48.072;7.800;2023-04-09T02:22:47;100012.34;;;4.34;86.98
63552;BME280;49698;48.072;7.800;2023-04-09T02:25:15;100008.53;;;4.30;87.08
63552;BME280;49698;48.072;7.800;2023-04-09T02:27:43;100013.69;;;4.25;87.25
63552;BME280;49698;48.072;7.800;2023-04-09T02:30:11;100003.06;;;4.25;87.18
63552;BME280;49698;48.072;7.800;2023-04-09T02:32:39;100004.09;;;4.24;87.04
63552;BME280;49698;48.072;7.800;2023-04-09T02:35:07;100009.44;;;4.24;87.27
63552;BME280;49698;48.072;7.800;2023-04-09T02:37:37;99996.94;;;4.24;87.03
63552;BME280;49698;48.072;7.800;2023-04-09T02:40:06;100004.09;;;4.24;87.07
63552;BME280;49698;48.072;7.800;2023-04-09T02:42:34;100006.41;;;4.20;87.12
63552;BME280;49698;48.072;7.800;2023-04-09T02:45:02;100005.22;;;4.16;86.96
63552;BME280;49698;48.072;7.800;2023-04-09T02:47:31;100006.84;;;4.17;87.11
63552;BME280;49698;48.072;7.800;2023-04-09T02:49:59;100010.47;;;4.23;86.89
63552;BME280;49698;48.072;7.800;2023-04-09T02:52:30;100005.16;;;4.23;86.62
63552;BME280;49698;48.072;7.800;2023-04-09T02:54:59;100004.34;;;4.22;86.52
63552;BME280;49698;48.072;7.800;2023-04-09T02:57:27;99993.69;;;4.22;86.38
63552;BME280;49698;48.072;7.800;2023-04-09T02:59:56;100005.59;;;4.20;86.59
63552;BME280;49698;48.072;7.800;2023-04-09T03:02:24;99998.88;;;4.17;86.43
63552;BME280;49698;48.072;7.800;2023-04-09T03:04:52;100001.16;;;4.13;86.37
63552;BME280;49698;48.072;7.800;2023-04-09T03:07:20;99994.66;;;4.09;86.37
63552;BME280;49698;48.072;7.800;2023-04-09T03:09:47;100001.34;;;4.00;86.51
63552;BME280;49698;48.072;7.800;2023-04-09T03:12:17;99991.69;;;3.87;86.49
63552;BME280;49698;48.072;7.800;2023-04-09T03:14:45;99995.13;;;3.76;86.56
63552;BME280;49698;48.072;7.800;2023-04-09T03:17:13;100000.88;;;3.73;86.84
63552;BME280;49698;48.072;7.800;2023-04-09T03:19:41;99997.84;;;3.70;86.85
63552;BME280;49698;48.072;7.800;2023-04-09T03:22:09;99992.97;;;3.66;87.08
63552;BME280;49698;48.072;7.800;2023-04-09T03:24:37;99999.69;;;3.69;86.76
63552;BME280;49698;48.072;7.800;2023-04-09T03:27:05;99995.19;;;3.70;86.80
63552;BME280;49698;48.072;7.800;2023-04-09T03:29:35;99994.38;;;3.69;86.56
63552;BME280;49698;48.072;7.800;2023-04-09T03:32:03;99988.25;;;3.68;86.35
63552;BME280;49698;48.072;7.800;2023-04-09T03:34:31;99985.59;;;3.68;86.43
63552;BME280;49698;48.072;7.800;2023-04-09T03:36:59;99992.53;;;3.70;86.32
63552;BME280;49698;48.072;7.800;2023-04-09T03:39:30;99990.31;;;3.66;86.43
63552;BME280;49698;48.072;7.800;2023-04-09T03:41:58;99985.44;;;3.63;86.31
63552;BME280;49698;48.072;7.800;2023-04-09T03:44:32;99992.38;;;3.64;86.46
63552;BME280;49698;48.072;7.800;2023-04-09T03:47:10;99988.69;;;3.65;86.28
63552;BME280;49698;48.072;7.800;2023-04-09T03:49:38;99990.53;;;3.65;86.21
63552;BME280;49698;48.072;7.800;2023-04-09T03:52:15;99991.94;;;3.67;86.00
63552;BME280;49698;48.072;7.800;2023-04-09T03:54:50;99987.22;;;3.70;86.10
63552;BME280;49698;48.072;7.800;2023-04-09T03:57:21;99978.88;;;3.66;85.95
63552;BME280;49698;48.072;7.800;2023-04-09T03:59:52;99992.84;;;3.61;86.04
63552;BME280;49698;48.072;7.800;2023-04-09T04:02:23;99989.13;;;3.62;86.20
63552;BME280;49698;48.072;7.800;2023-04-09T04:04:58;99989.56;;;3.59;86.27
63552;BME280;49698;48.072;7.800;2023-04-09T04:07:31;99986.53;;;3.56;86.69
63552;BME280;49698;48.072;7.800;2023-04-09T04:10:06;99987.22;;;3.51;86.45
63552;BME280;49698;48.072;7.800;2023-04-09T04:12:35;99992.00;;;3.42;86.50
63552;BME280;49698;48.072;7.800;2023-04-09T04:15:07;99994.53;;;3.37;86.85
63552;BME280;49698;48.072;7.800;2023-04-09T04:17:43;99993.13;;;3.35;86.63
63552;BME280;49698;48.072;7.800;2023-04-09T04:20:24;99997.84;;;3.33;86.71
63552;BME280;49698;48.072;7.800;2023-04-09T04:22:58;99989.50;;;3.29;87.08
63552;BME280;49698;48.072;7.800;2023-04-09T04:25:26;99992.97;;;3.30;86.80
63552;BME280;49698;48.072;7.800;2023-04-09T04:27:55;99996.00;;;3.33;86.64
63552;BME280;49698;48.072;7.800;2023-04-09T04:30:30;99996.81;;;3.34;86.55
63552;BME280;49698;48.072;7.800;2023-04-09T04:33:04;100003.16;;;3.33;86.47
63552;BME280;49698;48.072;7.800;2023-04-09T04:35:40;100001.09;;;3.35;86.37
63552;BME280;49698;48.072;7.800;2023-04-09T04:38:16;99998.44;;;3.35;86.04
63552;BME280;49698;48.072;7.800;2023-04-09T04:40:44;100000.72;;;3.31;86.08
63552;BME280;49698;48.072;7.800;2023-04-09T04:43:12;100007.88;;;3.31;86.06
63552;BME280;49698;48.072;7.800;2023-04-09T04:45:41;100007.75;;;3.26;86.47
63552;BME280;49698;48.072;7.800;2023-04-09T04:48:12;100004.09;;;3.20;86.64
63552;BME280;49698;48.072;7.800;2023-04-09T04:50:40;100012.50;;;3.17;87.04
63552;BME280;49698;48.072;7.800;2023-04-09T04:53:08;100007.66;;;3.14;86.67
63552;BME280;49698;48.072;7.800;2023-04-09T04:55:44;100013.00;;;3.07;86.99
63552;BME280;49698;48.072;7.800;2023-04-09T04:58:15;100011.44;;;3.00;87.17
63552;BME280;49698;48.072;7.800;2023-04-09T05:00:47;100023.75;;;2.94;87.47
63552;BME280;49698;48.072;7.800;2023-04-09T05:03:17;100014.00;;;2.88;87.19
63552;BME280;49698;48.072;7.800;2023-04-09T05:06:03;100012.00;;;2.83;87.71
63552;BME280;49698;48.072;7.800;2023-04-09T05:08:39;100008.53;;;2.83;87.49
63552;BME280;49698;48.072;7.800;2023-04-09T05:11:10;100016.03;;;2.86;87.37
63552;BME280;49698;48.072;7.800;2023-04-09T05:13:40;100015.25;;;2.85;87.24
63552;BME280;49698;48.072;7.800;2023-04-09T05:16:15;100018.94;;;2.84;87.24
63552;BME280;49698;48.072;7.800;2023-04-09T05:18:48;100013.19;;;2.87;87.45
63552;BME280;49698;48.072;7.800;2023-04-09T05:21:16;100024.78;;;2.93;87.30
63552;BME280;49698;48.072;7.800;2023-04-09T05:23:45;100016.38;;;2.96;86.85
63552;BME280;49698;48.072;7.800;2023-04-09T05:26:14;100022.50;;;2.97;86.85
63552;BME280;49698;48.072;7.800;2023-04-09T05:28:52;100016.81;;;2.93;86.74
63552;BME280;49698;48.072;7.800;2023-04-09T05:31:22;100023.16;;;2.92;86.95
63552;BME280;49698;48.072;7.800;2023-04-09T05:33:59;100015.19;;;2.92;87.11
63552;BME280;49698;48.072;7.800;2023-04-09T05:36:38;100019.47;;;2.93;86.93
63552;BME280;49698;48.072;7.800;2023-04-09T05:39:07;100013.34;;;2.92;86.74
63552;BME280;49698;48.072;7.800;2023-04-09T05:41:35;100016.84;;;2.86;86.77
63552;BME280;49698;48.072;7.800;2023-04-09T05:44:24;100011.34;;;2.88;87.22
63552;BME280;49698;48.072;7.800;2023-04-09T05:46:59;100021.53;;;2.91;86.67
63552;BME280;49698;48.072;7.800;2023-04-09T05:49:35;100021.53;;;2.91;86.89
63552;BME280;49698;48.072;7.800;2023-04-09T05:52:08;100018.88;;;2.91;86.85
63552;BME280;49698;48.072;7.800;2023-04-09T05:54:36;100021.09;;;2.94;86.61
63552;BME280;49698;48.072;7.800;2023-04-09T05:57:07;100027.81;;;2.97;86.62
63552;BME280;49698;48.072;7.800;2023-04-09T05:59:37;100024.88;;;3.05;86.21
63552;BME280;49698;48.072;7.800;2023-04-09T06:02:05;100021.13;;;3.12;86.52
63552;BME280;49698;48.072;7.800;2023-04-09T06:04:35;100021.47;;;3.23;86.26
63552;BME280;49698;48.072;7.800;2023-04-09T06:07:03;100015.63;;;3.32;85.76
63552;BME280;49698;48.072;7.800;2023-04-09T06:09:34;100020.88;;;3.39;85.62
63552;BME280;49698;48.072;7.800;2023-04-09T06:12:02;100021.63;;;3.46;85.85
63552;BME280;49698;48.072;7.800;2023-04-09T06:14:30;100029.31;;;3.54;85.51
63552;BME280;49698;48.072;7.800;2023-04-09T06:16:59;100034.09;;;3.64;85.18
63552;BME280;49698;48.072;7.800;2023-04-09T06:19:27;100035.81;;;3.77;84.80
63552;BME280;49698;48.072;7.800;2023-04-09T06:21:56;100032.41;;;3.88;84.41
63552;BME280;49698;48.072;7.800;2023-04-09T06:24:24;100034.06;;;4.01;84.32
63552;BME280;49698;48.072;7.800;2023-04-09T06:26:52;100031.91;;;4.09;84.41
63552;BME280;49698;48.072;7.800;2023-04-09T06:29:21;100029.75;;;4.18;84.43
63552;BME280;49698;48.072;7.800;2023-04-09T06:31:49;100032.47;;;4.30;84.66
63552;BME280;49698;48.072;7.800;2023-04-09T06:34:18;100036.00;;;4.42;84.73
63552;BME280;49698;48.072;7.800;2023-04-09T06:36:46;100024.69;;;4.58;84.66
63552;BME280;49698;48.072;7.800;2023-04-09T06:39:15;100035.38;;;4.82;83.82
63552;BME280;49698;48.072;7.800;2023-04-09T06:41:43;100034.34;;;5.06;83.00
63552;BME280;49698;48.072;7.800;2023-04-09T06:44:23;100032.75;;;5.29;82.46
63552;BME280;49698;48.072;7.800;2023-04-09T06:46:51;100031.00;;;5.46;81.57
63552;BME280;49698;48.072;7.800;2023-04-09T06:49:19;100037.47;;;5.62;81.03
63552;BME280;49698;48.072;7.800;2023-04-09T06:51:47;100039.41;;;5.78;80.82
63552;BME280;49698;48.072;7.800;2023-04-09T06:54:19;100051.50;;;5.93;79.99
63552;BME280;49698;48.072;7.800;2023-04-09T06:56:47;100038.34;;;6.03;80.13
63552;BME280;49698;48.072;7.800;2023-04-09T06:59:15;100042.00;;;6.13;79.50
63552;BME280;49698;48.072;7.800;2023-04-09T07:01:43;100047.06;;;6.27;78.96
63552;BME280;49698;48.072;7.800;2023-04-09T07:04:11;100051.31;;;6.40;78.75
63552;BME280;49698;48.072;7.800;2023-04-09T07:06:39;100050.22;;;6.52;78.23
63552;BME280;49698;48.072;7.800;2023-04-09T07:09:07;100049.09;;;6.65;77.12
63552;BME280;49698;48.072;7.800;2023-04-09T07:11:37;100047.66;;;6.74;76.93
63552;BME280;49698;48.072;7.800;2023-04-09T07:14:05;100045.13;;;6.84;76.42
63552;BME280;49698;48.072;7.800;2023-04-09T07:16:33;100044.25;;;6.96;75.55
63552;BME280;49698;48.072;7.800;2023-04-09T07:19:00;100052.19;;;7.07;75.34
63552;BME280;49698;48.072;7.800;2023-04-09T07:21:29;100048.31;;;7.15;74.86
63552;BME280;49698;48.072;7.800;2023-04-09T07:23:58;100045.78;;;7.25;74.57
63552;BME280;49698;48.072;7.800;2023-04-09T07:26:26;100046.97;;;7.34;74.14
63552;BME280;49698;48.072;7.800;2023-04-09T07:28:56;100054.09;;;7.46;73.40
63552;BME280;49698;48.072;7.800;2023-04-09T07:31:24;100056.66;;;7.57;73.43
63552;BME280;49698;48.072;7.800;2023-04-09T07:33:52;100052.28;;;7.68;72.66
63552;BME280;49698;48.072;7.800;2023-04-09T07:36:20;100054.84;;;7.80;72.00
63552;BME280;49698;48.072;7.800;2023-04-09T07:38:48;100061.94;;;7.91;71.82
63552;BME280;49698;48.072;7.800;2023-04-09T07:41:17;100066.09;;;8.04;71.36
63552;BME280;49698;48.072;7.800;2023-04-09T07:43:46;100066.47;;;8.13;71.06
63552;BME280;49698;48.072;7.800;2023-04-09T07:46:19;100071.44;;;8.26;70.87
63552;BME280;49698;48.072;7.800;2023-04-09T07:48:47;100070.53;;;8.37;70.27
63552;BME280;49698;48.072;7.800;2023-04-09T07:51:16;100060.97;;;8.46;70.02
63552;BME280;49698;48.072;7.800;2023-04-09T07:53:44;100062.97;;;8.56;69.90
63552;BME280;49698;48.072;7.800;2023-04-09T07:56:12;100067.09;;;8.69;68.95
63552;BME280;49698;48.072;7.800;2023-04-09T07:58:40;100067.22;;;8.79;68.57
63552;BME280;49698;48.072;7.800;2023-04-09T08:01:08;100062.97;;;8.88;67.91
63552;BME280;49698;48.072;7.800;2023-04-09T08:03:37;100059.84;;;8.96;67.76
63552;BME280;49698;48.072;7.800;2023-04-09T08:06:05;100059.66;;;9.08;67.12
63552;BME280;49698;48.072;7.800;2023-04-09T08:08:34;100062.75;;;9.27;66.44
63552;BME280;49698;48.072;7.800;2023-04-09T08:11:02;100058.16;;;9.65;65.59
63552;BME280;49698;48.072;7.800;2023-04-09T08:13:30;100058.41;;;10.26;63.97
63552;BME280;49698;48.072;7.800;2023-04-09T08:15:59;100068.22;;;10.93;62.69
63552;BME280;49698;48.072;7.800;2023-04-09T08:18:27;100057.38;;;11.65;60.21
63552;BME280;49698;48.072;7.800;2023-04-09T08:20:57;100054.44;;;12.31;57.90
63552;BME280;49698;48.072;7.800;2023-04-09T08:23:25;100061.69;;;12.80;55.18
63552;BME280;49698;48.072;7.800;2023-04-09T08:25:53;100066.28;;;13.14;54.23
63552;BME280;49698;48.072;7.800;2023-04-09T08:28:21;100065.72;;;13.46;52.51
63552;BME280;49698;48.072;7.800;2023-04-09T08:30:49;100060.09;;;13.66;52.25
63552;BME280;49698;48.072;7.800;2023-04-09T08:33:17;100052.03;;;13.90;50.75
63552;BME280;49698;48.072;7.800;2023-04-09T08:35:45;100055.41;;;14.20;50.45
63552;BME280;49698;48.072;7.800;2023-04-09T08:38:15;100063.19;;;14.46;48.64
63552;BME280;49698;48.072;7.800;2023-04-09T08:40:42;100061.31;;;14.65;47.62
63552;BME280;49698;48.072;7.800;2023-04-09T08:43:14;100050.59;;;14.92;47.50
63552;BME280;49698;48.072;7.800;2023-04-09T08:45:42;100053.22;;;15.30;47.52
63552;BME280;49698;48.072;7.800;2023-04-09T08:48:12;100050.34;;;15.54;46.28
63552;BME280;49698;48.072;7.800;2023-04-09T08:50:40;100056.41;;;15.65;44.93
63552;BME280;49698;48.072;7.800;2023-04-09T08:53:09;100054.59;;;15.74;45.07
63552;BME280;49698;48.072;7.800;2023-04-09T08:55:39;100054.28;;;15.89;44.63
63552;BME280;49698;48.072;7.800;2023-04-09T08:58:07;100066.84;;;15.99;43.39
63552;BME280;49698;48.072;7.800;2023-04-09T09:00:36;100053.78;;;16.15;43.13
63552;BME280;49698;48.072;7.800;2023-04-09T09:03:06;100062.78;;;16.24;42.56
63552;BME280;49698;48.072;7.800;2023-04-09T09:05:36;100059.06;;;16.34;42.37
63552;BME280;49698;48.072;7.800;2023-04-09T09:08:06;100058.03;;;16.44;41.21
63552;BME280;49698;48.072;7.800;2023-04-09T09:10:40;100055.09;;;16.54;40.71
63552;BME280;49698;48.072;7.800;2023-04-09T09:13:15;100061.00;;;16.56;40.59
63552;BME280;49698;48.072;7.800;2023-04-09T09:15:43;100063.13;;;16.59;40.28
63552;BME280;49698;48.072;7.800;2023-04-09T09:18:13;100058.91;;;16.53;40.03
63552;BME280;49698;48.072;7.800;2023-04-09T09:20:41;100060.75;;;16.44;39.90
63552;BME280;49698;48.072;7.800;2023-04-09T09:23:09;100047.91;;;16.22;40.04
63552;BME280;49698;48.072;7.800;2023-04-09T09:25:39;100044.34;;;15.99;40.39
63552;BME280;49698;48.072;7.800;2023-04-09T09:28:08;100042.84;;;15.79;41.09
63552;BME280;49698;48.072;7.800;2023-04-09T09:30:38;100040.81;;;15.57;41.58
63552;BME280;49698;48.072;7.800;2023-04-09T09:33:07;100046.38;;;15.33;41.81
63552;BME280;49698;48.072;7.800;2023-04-09T09:35:46;100041.91;;;15.09;43.22
63552;BME280;49698;48.072;7.800;2023-04-09T09:38:16;100041.38;;;14.93;44.54
63552;BME280;49698;48.072;7.800;2023-04-09T09:40:45;100031.41;;;14.75;44.75
63552;BME280;49698;48.072;7.800;2023-04-09T09:43:13;100033.06;;;14.71;45.19
63552;BME280;49698;48.072;7.800;2023-04-09T09:45:41;100035.78;;;14.71;45.53
63552;BME280;49698;48.072;7.800;2023-04-09T09:48:11;100032.41;;;14.79;45.64
63552;BME280;49698;48.072;7.800;2023-04-09T09:50:40;100029.03;;;14.87;45.22
63552;BME280;49698;48.072;7.800;2023-04-09T09:53:10;100034.69;;;15.05;44.83
63552;BME280;49698;48.072;7.800;2023-04-09T09:55:39;100013.38;;;15.31;44.22
63552;BME280;49698;48.072;7.800;2023-04-09T09:58:15;100015.59;;;15.56;43.41
63552;BME280;49698;48.072;7.800;2023-04-09T10:00:45;100018.22;;;15.61;42.88
63552;BME280;49698;48.072;7.800;2023-04-09T10:03:19;100015.84;;;15.74;42.45
63552;BME280;49698;48.072;7.800;2023-04-09T10:05:48;100017.34;;;15.66;42.62
63552;BME280;49698;48.072;7.800;2023-04-09T10:08:17;100012.94;;;15.70;42.36
63552;BME280;49698;48.072;7.800;2023-04-09T10:10:46;100012.63;;;15.85;42.10
63552;BME280;49698;48.072;7.800;2023-04-09T10:13:19;100018.84;;;15.86;41.99
63552;BME280;49698;48.072;7.800;2023-04-09T10:15:50;100016.66;;;15.74;41.64
63552;BME280;49698;48.072;7.800;2023-04-09T10:18:19;100019.03;;;15.62;41.85
63552;BME280;49698;48.072;7.800;2023-04-09T10:20:50;100012.59;;;15.58;42.01
63552;BME280;49698;48.072;7.800;2023-04-09T10:23:30;100008.59;;;15.55;41.74
63552;BME280;49698;48.072;7.800;2023-04-09T10:25:59;100007.06;;;15.63;41.77
63552;BME280;49698;48.072;7.800;2023-04-09T10:28:29;100010.81;;;15.67;41.09
63552;BME280;49698;48.072;7.800;2023-04-09T10:30:57;99999.78;;;15.77;41.21
63552;BME280;49698;48.072;7.800;2023-04-09T10:33:26;100001.97;;;15.75;40.33
63552;BME280;49698;48.072;7.800;2023-04-09T10:35:58;99999.69;;;15.69;40.23
63552;BME280;49698;48.072;7.800;2023-04-09T10:38:34;100002.22;;;15.65;40.72
63552;BME280;49698;48.072;7.800;2023-04-09T10:41:13;99995.34;;;15.68;41.36
63552;BME280;49698;48.072;7.800;2023-04-09T10:43:46;100002.22;;;15.65;42.00
63552;BME280;49698;48.072;7.800;2023-04-09T10:46:28;99999.91;;;15.72;41.89
63552;BME280;49698;48.072;7.800;2023-04-09T10:49:15;99993.75;;;15.80;41.54
63552;BME280;49698;48.072;7.800;2023-04-09T10:51:51;99988.34;;;15.80;41.49
63552;BME280;49698;48.072;7.800;2023-04-09T10:54:38;99986.13;;;15.82;41.55
63552;BME280;49698;48.072;7.800;2023-04-09T10:57:13;99987.72;;;15.83;41.61
63552;BME280;49698;48.072;7.800;2023-04-09T10:59:43;99978.38;;;15.89;41.32
63552;BME280;49698;48.072;7.800;2023-04-09T11:02:36;99974.75;;;16.08;41.92
63552;BME280;49698;48.072;7.800;2023-04-09T11:05:20;99979.91;;;16.18;41.27
63552;BME280;49698;48.072;7.800;2023-04-09T11:07:52;99975.31;;;16.19;41.17
63552;BME280;49698;48.072;7.800;2023-04-09T11:10:22;99980.91;;;16.22;41.04
63552;BME280;49698;48.072;7.800;2023-04-09T11:12:50;99976.38;;;16.31;41.32
63552;BME280;49698;48.072;7.800;2023-04-09T11:15:21;99982.22;;;16.25;41.41
63552;BME280;49698;48.072;7.800;2023-04-09T11:17:49;99974.47;;;15.96;41.08
63552;BME280;49698;48.072;7.800;2023-04-09T11:20:19;99967.13;;;15.82;41.19
63552;BME280;49698;48.072;7.800;2023-04-09T11:22:48;99971.13;;;15.99;40.74
63552;BME280;49698;48.072;7.800;2023-04-09T11:25:18;99960.13;;;16.18;40.96
63552;BME280;49698;48.072;7.800;2023-04-09T11:27:46;99961.88;;;16.36;39.81
63552;BME280;49698;48.072;7.800;2023-04-09T11:30:14;99963.66;;;16.41;39.23
63552;BME280;49698;48.072;7.800;2023-04-09T11:32:44;99957.88;;;16.33;38.53
63552;BME280;49698;48.072;7.800;2023-04-09T11:35:13;99961.50;;;16.29;38.36
63552;BME280;49698;48.072;7.800;2023-04-09T11:37:42;99958.13;;;16.23;38.20
63552;BME280;49698;48.072;7.800;2023-04-09T11:40:14;99952.22;;;16.44;38.65
63552;BME280;49698;48.072;7.800;2023-04-09T11:42:43;99949.50;;;16.66;38.01
63552;BME280;49698;48.072;7.800;2023-04-09T11:45:13;99948.44;;;16.76;37.43
63552;BME280;49698;48.072;7.800;2023-04-09T11:47:44;99953.66;;;16.72;37.83
63552;BME280;49698;48.072;7.800;2023-04-09T11:50:13;99956.13;;;16.74;38.00
63552;BME280;49698;48.072;7.800;2023-04-09T11:52:42;99952.97;;;16.80;37.97
63552;BME280;49698;48.072;7.800;2023-04-09T11:55:11;99952.16;;;16.80;37.84
63552;BME280;49698;48.072;7.800;2023-04-09T11:57:50;99945.16;;;16.87;37.29
63552;BME280;49698;48.072;7.800;2023-04-09T12:00:19;99934.03;;;16.98;37.63
63552;BME280;49698;48.072;7.800;2023-04-09T12:02:49;99947.84;;;17.10;37.41
63552;BME280;49698;48.072;7.800;2023-04-09T12:05:22;99947.84;;;17.10;37.02
63552;BME280;49698;48.072;7.800;2023-04-09T12:07:51;99941.94;;;17.08;37.33
63552;BME280;49698;48.072;7.800;2023-04-09T12:10:26;99950.13;;;17.17;37.39
63552;BME280;49698;48.072;7.800;2023-04-09T12:12:59;99942.59;;;17.22;36.96
63552;BME280;49698;48.072;7.800;2023-04-09T12:15:29;99943.75;;;17.30;35.92
63552;BME280;49698;48.072;7.800;2023-04-09T12:17:59;99933.13;;;17.11;34.75
63552;BME280;49698;48.072;7.800;2023-04-09T12:20:32;99934.31;;;16.87;35.59
63552;BME280;49698;48.072;7.800;2023-04-09T12:23:01;99928.88;;;16.87;35.68
63552;BME280;49698;48.072;7.800;2023-04-09T12:25:30;99922.81;;;16.91;35.31
63552;BME280;49698;48.072;7.800;2023-04-09T12:27:58;99917.25;;;16.96;35.59
63552;BME280;49698;48.072;7.800;2023-04-09T12:30:26;99928.34;;;17.08;35.68
63552;BME280;49698;48.072;7.800;2023-04-09T12:32:54;99927.09;;;17.23;36.19
63552;BME280;49698;48.072;7.800;2023-04-09T12:35:24;99918.69;;;17.42;36.33
63552;BME280;49698;48.072;7.800;2023-04-09T12:37:52;99914.41;;;17.49;36.04
63552;BME280;49698;48.072;7.800;2023-04-09T12:40:20;99914.41;;;17.49;35.85
63552;BME280;49698;48.072;7.800;2023-04-09T12:42:48;99910.91;;;17.49;36.05
63552;BME280;49698;48.072;7.800;2023-04-09T12:45:18;99914.28;;;17.63;36.35
63552;BME280;49698;48.072;7.800;2023-04-09T12:47:46;99909.31;;;17.65;35.44
63552;BME280;49698;48.072;7.800;2023-04-09T12:50:15;99913.44;;;17.54;35.17
63552;BME280;49698;48.072;7.800;2023-04-09T12:52:45;99912.81;;;17.40;35.45
63552;BME280;49698;48.072;7.800;2023-04-09T12:55:13;99910.69;;;17.28;34.66
63552;BME280;49698;48.072;7.800;2023-04-09T12:57:43;99912.56;;;17.19;35.42
63552;BME280;49698;48.072;7.800;2023-04-09T13:00:12;99906.31;;;17.18;36.00
63552;BME280;49698;48.072;7.800;2023-04-09T13:02:40;99896.59;;;17.26;35.45
63552;BME280;49698;48.072;7.800;2023-04-09T13:05:08;99903.19;;;17.33;36.09
63552;BME280;49698;48.072;7.800;2023-04-09T13:07:37;99900.63;;;17.37;35.81
63552;BME280;49698;48.072;7.800;2023-04-09T13:10:08;99898.41;;;17.39;35.78
63552;BME280;49698;48.072;7.800;2023-04-09T13:12:36;99900.97;;;17.35;35.81
63552;BME280;49698;48.072;7.800;2023-04-09T13:15:05;99888.34;;;17.40;36.29
63552;BME280;49698;48.072;7.800;2023-04-09T13:17:33;99887.03;;;17.37;35.79